Time;durP1;ratioP1;P1;durP2;ratioP2;P2;SDS_P1;SDS_P2;PMS_P1;PMS_P2;Temp;Humidity;BMP_temperature;BMP_pressure;BME280_temperature;BME280_humidity;BME280_pressure;Samples;Min_cycle;Max_cycle;Signal;HPM_P1;HPM_P2
2021/06/30 00:05:34;;;;;;;3.60;2.40;;;15.80;99.90;;;;;;6665154;88;20185;-77
2021/06/30 00:15:36;;;;;;;3.85;2.12;;;15.80;99.90;;;;;;6662347;88;20354;-78
2021/06/30 00:25:37;;;;;;;4.28;2.80;;;15.60;99.90;;;;;;6673149;88;20207;-78
2021/06/30 00:35:37;;;;;;;6.28;2.72;;;15.50;99.90;;;;;;6661882;88;20286;-78
2021/06/30 00:45:38;;;;;;;4.35;2.70;;;15.50;99.90;;;;;;6659293;89;20203;-77
2021/06/30 00:55:39;;;;;;;4.90;2.93;;;15.60;99.90;;;;;;6678467;88;20621;-77
2021/06/30 01:05:39;;;;;;;6.50;2.72;;;15.50;99.90;;;;;;6669425;89;20519;-78
2021/06/30 01:15:45;;;;;;;5.53;2.80;;;15.30;99.90;;;;;;6669767;88;20307;-78
2021/06/30 01:25:46;;;;;;;4.82;2.97;;;15.30;99.90;;;;;;6674536;88;20183;-77
2021/06/30 01:35:47;;;;;;;5.82;2.90;;;15.20;99.90;;;;;;6668346;88;20585;-77
2021/06/30 01:45:52;;;;;;;5.68;3.25;;;15.20;99.90;;;;;;6661274;88;20248;-77
2021/06/30 01:55:52;;;;;;;5.47;3.37;;;15.10;99.90;;;;;;6664643;88;20188;-78
2021/06/30 02:05:53;;;;;;;5.10;2.97;;;15.30;99.90;;;;;;6681139;88;20311;-78
2021/06/30 02:15:53;;;;;;;6.12;3.30;;;15.00;99.90;;;;;;6666721;89;20228;-77
2021/06/30 02:25:54;;;;;;;5.82;4.00;;;15.10;99.90;;;;;;6656970;89;20717;-77
2021/06/30 02:35:55;;;;;;;9.82;4.10;;;15.10;99.90;;;;;;6651760;89;20210;-77
2021/06/30 02:45:56;;;;;;;5.37;4.30;;;15.00;99.90;;;;;;6662481;88;20673;-77
2021/06/30 02:55:56;;;;;;;5.85;3.90;;;15.10;99.90;;;;;;6669046;89;20345;-77
2021/06/30 03:05:58;;;;;;;8.90;5.03;;;14.90;99.90;;;;;;6666932;89;20253;-77
2021/06/30 03:15:59;;;;;;;7.35;4.82;;;14.90;99.90;;;;;;6665676;89;20622;-77
2021/06/30 03:26:00;;;;;;;9.00;5.43;;;14.90;99.90;;;;;;6668715;89;20234;-77
2021/06/30 03:36:01;;;;;;;10.23;5.60;;;14.90;99.90;;;;;;6668343;89;20212;-76
2021/06/30 03:46:01;;;;;;;9.02;5.18;;;15.00;99.90;;;;;;6666079;88;20200;-77
2021/06/30 03:56:02;;;;;;;6.70;4.90;;;15.10;99.90;;;;;;6667171;89;20205;-77
2021/06/30 04:06:02;;;;;;;6.87;4.62;;;15.10;99.90;;;;;;6656582;88;20213;-77
2021/06/30 04:16:03;;;;;;;6.85;4.57;;;15.30;99.90;;;;;;6657929;88;20199;-77
2021/06/30 04:26:04;;;;;;;7.03;4.68;;;15.50;99.90;;;;;;6660326;88;20615;-77
2021/06/30 04:36:05;;;;;;;7.28;4.40;;;15.50;99.90;;;;;;6665603;88;20194;-77
2021/06/30 04:46:06;;;;;;;9.85;5.57;;;15.70;99.90;;;;;;6663579;89;20783;-76
2021/06/30 04:56:07;;;;;;;9.32;5.18;;;15.90;99.90;;;;;;6669414;88;20307;-77
2021/06/30 05:06:08;;;;;;;8.20;6.03;;;16.10;99.90;;;;;;6658976;89;20409;-77
2021/06/30 05:16:09;;;;;;;10.18;5.80;;;16.00;99.90;;;;;;6652890;88;20326;-77
2021/06/30 05:26:09;;;;;;;7.68;5.62;;;16.10;99.90;;;;;;6647823;88;20176;-77
2021/06/30 05:36:10;;;;;;;10.88;6.00;;;16.20;99.90;;;;;;6653420;88;20229;-76
2021/06/30 05:46:11;;;;;;;8.10;6.05;;;16.20;99.90;;;;;;6680660;88;20201;-75
2021/06/30 05:56:12;;;;;;;11.25;6.47;;;16.10;99.90;;;;;;6663780;88;20661;-77
2021/06/30 06:06:13;;;;;;;9.25;6.62;;;16.10;99.90;;;;;;6662076;89;20192;-76
2021/06/30 06:16:16;;;;;;;8.57;5.80;;;16.20;99.90;;;;;;6654569;88;20194;-76
2021/06/30 06:26:17;;;;;;;5.82;3.72;;;16.30;99.90;;;;;;6670914;88;20240;-76
2021/06/30 06:36:17;;;;;;;4.90;3.50;;;16.60;99.90;;;;;;6682220;88;20224;-76
2021/06/30 06:46:19;;;;;;;6.03;3.25;;;16.70;99.90;;;;;;6664969;88;20230;-77
2021/06/30 06:56:24;;;;;;;4.65;2.85;;;16.80;99.90;;;;;;6666940;88;20716;-76
2021/06/30 07:06:25;;;;;;;4.75;2.58;;;17.00;99.90;;;;;;6663039;89;20311;-76
2021/06/30 07:16:26;;;;;;;4.05;1.92;;;17.20;99.90;;;;;;6666003;89;20211;-76
2021/06/30 07:26:26;;;;;;;3.55;1.60;;;17.40;99.90;;;;;;6649478;88;20310;-76
2021/06/30 07:36:27;;;;;;;3.25;1.00;;;18.10;99.90;;;;;;6649144;88;21107;-76
2021/06/30 07:46:28;;;;;;;1.33;0.90;;;18.30;99.90;;;;;;6655087;89;20248;-76
2021/06/30 07:56:36;;;;;;;0.80;0.37;;;18.20;99.90;;;;;;6660041;89;20579;-76
2021/06/30 08:06:36;;;;;;;1.87;0.47;;;17.70;99.90;;;;;;6662517;88;20220;-76
2021/06/30 08:16:37;;;;;;;1.20;0.60;;;17.60;99.90;;;;;;6649475;77;20283;-77
2021/06/30 08:26:38;;;;;;;1.20;0.65;;;18.80;99.90;;;;;;6639376;88;20647;-76
2021/06/30 08:36:38;;;;;;;1.50;0.90;;;19.20;99.90;;;;;;6637302;88;20218;-77
2021/06/30 08:46:39;;;;;;;5.45;1.00;;;19.10;99.90;;;;;;6632837;88;20531;-77
2021/06/30 08:56:41;;;;;;;2.28;1.10;;;19.00;99.90;;;;;;6643807;88;20192;-77
2021/06/30 09:06:41;;;;;;;2.25;1.23;;;18.40;99.90;;;;;;6638417;88;20200;-77
2021/06/30 09:27:06;;;;;;;1.95;0.52;;;18.30;99.90;;;;;;6644651;88;21073;-77
2021/06/30 09:37:08;;;;;;;0.70;0.40;;;18.30;99.90;;;;;;6648900;88;20185;-76
2021/06/30 09:47:09;;;;;;;1.60;0.50;;;18.10;99.90;;;;;;6652591;88;20196;-77
2021/06/30 09:57:11;;;;;;;1.65;0.40;;;18.40;99.90;;;;;;6646559;88;20211;-77
2021/06/30 10:07:14;;;;;;;0.95;0.50;;;19.00;99.90;;;;;;6646666;88;20196;-77
2021/06/30 10:17:15;;;;;;;1.45;0.60;;;19.40;99.90;;;;;;6657472;88;21065;-79
2021/06/30 10:27:16;;;;;;;0.85;0.52;;;19.10;99.90;;;;;;6636923;88;20249;-76
2021/06/30 10:37:23;;;;;;;0.85;0.60;;;19.20;99.90;;;;;;6639985;88;20218;-77
2021/06/30 10:47:40;;;;;;;1.10;0.70;;;19.40;99.90;;;;;;6638585;88;20214;-77
2021/06/30 10:57:40;;;;;;;1.20;0.80;;;19.50;99.90;;;;;;6639268;88;20215;-77
2021/06/30 11:07:42;;;;;;;1.20;0.88;;;19.40;99.90;;;;;;6631538;89;20686;-76
2021/06/30 11:17:43;;;;;;;1.00;0.70;;;19.60;99.90;;;;;;6641564;88;20210;-76
2021/06/30 11:27:45;;;;;;;1.20;0.80;;;20.50;99.90;;;;;;6633890;88;20189;-78
2021/06/30 11:37:54;;;;;;;1.55;1.00;;;20.50;99.90;;;;;;6642131;88;20334;-76
2021/06/30 11:47:57;;;;;;;1.98;1.00;;;20.60;99.90;;;;;;6640457;88;20232;-76
2021/06/30 11:58:01;;;;;;;1.30;1.10;;;20.50;99.90;;;;;;6644277;88;20208;-76
2021/06/30 12:08:03;;;;;;;3.55;1.80;;;20.80;99.90;;;;;;6641424;88;20365;-75
2021/06/30 12:18:04;;;;;;;1.65;1.35;;;19.90;99.90;;;;;;6640566;88;20192;-76
2021/06/30 12:28:05;;;;;;;2.33;1.20;;;20.00;99.90;;;;;;6640288;88;20767;-76
2021/06/30 12:38:14;;;;;;;2.75;1.30;;;20.10;99.90;;;;;;6640269;88;20209;-75
2021/06/30 12:48:17;;;;;;;2.12;1.20;;;19.90;99.90;;;;;;6645449;88;21033;-77
2021/06/30 12:58:17;;;;;;;1.45;0.90;;;19.90;99.90;;;;;;6640353;88;20256;-77
2021/06/30 13:08:34;;;;;;;1.58;0.98;;;20.00;99.90;;;;;;6648949;88;20184;-78
2021/06/30 13:18:54;;;;;;;2.40;1.02;;;19.80;99.90;;;;;;6647396;89;20360;-76
2021/06/30 13:29:33;;;;;;;2.58;1.20;;;20.00;99.90;;;;;;6634201;89;20258;-76
2021/06/30 13:39:29;;;;;;;2.15;1.02;;;19.80;99.90;;;;;;6636070;88;20173;-76
2021/06/30 13:49:29;;;;;;;1.60;1.10;;;19.80;99.90;;;;;;6637960;89;20280;-76
2021/06/30 13:59:30;;;;;;;2.50;1.40;;;19.80;99.90;;;;;;6635251;88;20181;-75
2021/06/30 14:09:30;;;;;;;2.80;1.30;;;19.70;99.90;;;;;;6632890;89;20189;-76
2021/06/30 14:19:31;;;;;;;2.58;1.42;;;19.50;99.90;;;;;;6650892;78;20345;-74
2021/06/30 14:29:32;;;;;;;3.20;2.03;;;19.50;99.90;;;;;;6665508;89;20209;-74
2021/06/30 14:39:34;;;;;;;3.15;1.60;;;19.40;99.90;;;;;;6669526;89;20192;-75
2021/06/30 14:49:35;;;;;;;1.98;1.40;;;19.70;99.90;;;;;;6665315;88;20616;-74
2021/06/30 14:59:37;;;;;;;4.75;2.17;;;19.70;99.90;;;;;;6668834;88;20224;-74
2021/06/30 15:09:37;;;;;;;3.05;1.60;;;19.50;99.90;;;;;;6667673;89;20319;-74
2021/06/30 15:19:38;;;;;;;1.90;1.40;;;19.50;99.90;;;;;;6669139;89;20266;-74
2021/06/30 15:29:39;;;;;;;2.40;1.75;;;19.60;99.90;;;;;;6669427;89;20189;-76
2021/06/30 15:39:39;;;;;;;1.70;1.37;;;19.70;99.90;;;;;;6672203;88;20215;-75
2021/06/30 15:49:40;;;;;;;2.50;1.90;;;19.60;99.90;;;;;;6657677;88;20690;-76
2021/06/30 15:59:41;;;;;;;3.78;2.40;;;19.60;99.90;;;;;;6664070;88;20253;-76
2021/06/30 16:09:41;;;;;;;4.43;3.10;;;19.60;99.90;;;;;;6667112;89;20214;-76
2021/06/30 16:19:42;;;;;;;4.20;3.17;;;19.20;99.90;;;;;;6665598;88;20241;-75
2021/06/30 16:29:42;;;;;;;5.10;3.40;;;18.90;99.90;;;;;;6661317;88;20231;-75
2021/06/30 16:39:43;;;;;;;4.15;3.35;;;18.70;99.90;;;;;;6665470;88;20206;-77
2021/06/30 16:49:43;;;;;;;7.80;4.30;;;18.40;99.90;;;;;;6662431;88;20189;-78
2021/06/30 16:59:44;;;;;;;6.87;4.57;;;18.50;99.90;;;;;;6673315;88;20223;-78
2021/06/30 17:09:44;;;;;;;9.15;4.78;;;18.60;99.90;;;;;;6673682;89;20195;-78
2021/06/30 17:19:47;;;;;;;6.65;4.62;;;18.50;99.90;;;;;;6671484;88;20224;-78
2021/06/30 17:29:48;;;;;;;6.47;4.65;;;18.30;99.90;;;;;;6675054;88;20202;-77
2021/06/30 17:39:49;;;;;;;5.05;3.60;;;18.00;99.90;;;;;;6673729;89;20720;-78
2021/06/30 17:49:49;;;;;;;6.10;3.30;;;17.90;99.90;;;;;;6668073;88;20202;-76
2021/06/30 17:59:50;;;;;;;6.90;3.53;;;18.10;99.90;;;;;;6658993;88;20210;-75
2021/06/30 18:09:53;;;;;;;5.20;3.30;;;17.90;99.90;;;;;;6663054;89;20195;-76
2021/06/30 18:19:54;;;;;;;5.28;3.62;;;17.70;99.90;;;;;;6665610;89;20179;-76
2021/06/30 18:29:54;;;;;;;4.90;2.25;;;17.60;99.90;;;;;;6668680;88;20770;-75
2021/06/30 18:39:56;;;;;;;5.22;2.47;;;17.40;99.90;;;;;;6666033;89;20687;-76
2021/06/30 18:49:56;;;;;;;3.30;2.60;;;17.30;99.90;;;;;;6677386;88;20200;-76
2021/06/30 18:59:57;;;;;;;3.37;2.00;;;17.30;99.90;;;;;;6664784;89;20203;-75
2021/06/30 19:09:58;;;;;;;3.43;1.83;;;17.10;99.90;;;;;;6672363;88;20189;-77
2021/06/30 19:19:58;;;;;;;3.55;2.10;;;17.00;99.90;;;;;;6671166;88;20514;-78
2021/06/30 19:29:59;;;;;;;5.13;2.10;;;17.00;99.90;;;;;;6669004;89;20713;-77
2021/06/30 19:40:03;;;;;;;5.00;2.15;;;16.70;99.90;;;;;;6672170;89;20535;-77
2021/06/30 19:50:04;;;;;;;3.30;2.20;;;16.70;99.90;;;;;;6667952;89;20212;-78
2021/06/30 20:00:09;;;;;;;4.30;2.40;;;16.40;99.90;;;;;;6667287;89;20257;-77
2021/06/30 20:10:11;;;;;;;4.32;2.95;;;16.10;99.90;;;;;;6669430;89;20200;-77
2021/06/30 20:20:13;;;;;;;5.70;4.03;;;15.70;99.90;;;;;;6667436;89;20222;-77
2021/06/30 20:30:14;;;;;;;6.93;4.57;;;15.40;99.90;;;;;;6666351;88;20196;-76
2021/06/30 20:40:15;;;;;;;9.07;4.93;;;15.40;99.90;;;;;;6669079;89;20200;-77
2021/06/30 20:50:16;;;;;;;7.23;4.30;;;15.30;99.90;;;;;;6668175;89;20183;-77
2021/06/30 21:00:17;;;;;;;9.38;6.07;;;15.30;99.90;;;;;;6673129;89;20511;-77
2021/06/30 21:10:18;;;;;;;10.70;6.15;;;15.30;99.90;;;;;;6665133;88;20184;-76
2021/06/30 21:20:19;;;;;;;10.95;6.20;;;15.30;99.90;;;;;;6668900;88;20191;-77
2021/06/30 21:30:19;;;;;;;13.30;6.33;;;15.20;99.90;;;;;;6679163;88;20215;-77
2021/06/30 21:40:20;;;;;;;12.47;7.57;;;15.20;99.90;;;;;;6667763;88;21386;-77
2021/06/30 21:50:21;;;;;;;15.40;7.80;;;15.10;99.90;;;;;;6674949;89;20217;-77
2021/06/30 22:00:28;;;;;;;14.68;7.50;;;15.20;99.90;;;;;;6669945;89;20624;-77
2021/06/30 22:10:28;;;;;;;12.82;7.00;;;15.10;99.90;;;;;;6671701;89;20195;-77
2021/06/30 22:20:33;;;;;;;17.50;8.75;;;15.00;99.90;;;;;;6672026;89;21077;-77
2021/06/30 22:30:34;;;;;;;19.52;9.75;;;14.80;99.90;;;;;;6669648;89;20180;-77
2021/06/30 22:40:36;;;;;;;21.20;10.00;;;14.70;99.90;;;;;;6670727;89;20176;-78
2021/06/30 22:50:38;;;;;;;21.02;11.27;;;14.70;99.90;;;;;;6673100;88;20191;-77
2021/06/30 23:00:39;;;;;;;22.05;11.52;;;14.80;99.90;;;;;;6671684;89;20694;-78
2021/06/30 23:10:40;;;;;;;22.80;12.27;;;14.70;99.90;;;;;;6681404;88;20188;-76
2021/06/30 23:20:40;;;;;;;23.23;12.52;;;14.60;99.90;;;;;;6666081;88;20193;-77
2021/06/30 23:30:41;;;;;;;25.62;14.20;;;14.60;99.90;;;;;;6672356;88;20707;-77
2021/06/30 23:40:41;;;;;;;24.17;14.73;;;14.70;99.90;;;;;;6671506;88;20204;-77
2021/06/30 23:50:42;;;;;;;24.65;14.32;;;14.80;99.90;;;;;;6670899;88;20179;-77
